Relevés horaires Matro (Suisse)


Relevés horaires à Matro - Lundi 10 Juin 2019
Heure UTC1 Température [°C] Vent [km/h] Hum. [%] Pres.4 [hPa] Visi. [Km] Nébu. [octa] Préc.5 [mm] Cond.
2m. Res. Ros. Dir.2 Vit. Moy. Raf.3
23:00 8.3 2.3 8.3 S 70.4 -- 114.8 100 850(-1.9/3h) -- -- -- --
22:00 8.3 2.8 8.2 SSE 59.3 -- 87.0 99 850(-1.1/3h) -- -- -- --
21:00 8.9 4.1 6.8 SSE 48.2 -- 87.0 87 850(-2.3/3h) -- -- -- --
20:00 9.0 4 6.1 SSE 53.7 -- 87.0 82 850(-2.4/3h) -- -- -- --
19:00 9.0 4.5 5.8 SE 42.6 -- 63.0 80 850(-3.1/3h) -- -- -- --
18:00 9.8 5.2 4.8 SE 50.0 -- 100.0 71 850(-2.5/3h) -- -- -- --
17:00 8.6 4.3 6.3 SSE 37.0 -- 48.2 85 850(-1.5/3h) -- -- -- --
16:00 8.3 4.1 6.4 SE 33.3 -- 44.4 88 850(-0.1/3h) -- -- -- --
15:00 8.1 4 7.4 SE 31.5 -- 100.0 95 850(0.5/3h) -- -- -- --
14:00 7.7 2.9 7.7 S 40.7 -- 81.5 100 850(0.1/3h) -- -- -- --
13:00 8.4 2.7 8.4 SSE 63.0 -- 100.0 100 850(-1.0/3h) -- -- -- --
12:00 8.5 2.9 8.5 S 63.0 -- 90.7 100 850(-1.5/3h) -- -- -- --
11:00 10.0 6.2 7.9 SSE 35.2 -- 59.3 87 850(-1.6/3h) -- -- -- --
10:00 8.8 4.1 8.3 SSE 44.4 -- 59.3 97 850(-1.4/3h) -- -- -- --
09:00 8.9 4.4 8.4 SSE 42.6 -- 72.2 97 850(-0.7/3h) -- -- -- --
08:00 8.5 3.4 8.3 SSE 50.0 -- 64.8 99 850(0.3/3h) -- -- -- --
07:00 8.4 3.4 8.4 SSE 48.2 -- 72.2 100 850(0.4/3h) -- -- -- --
06:00 8.5 3.1 8.2 SSE 57.4 -- 81.5 98 850(0.5/3h) -- -- -- --
05:00 8.3 2.8 8.3 SSE 59.3 -- 74.1 100 850(-0.7/3h) -- -- -- --
04:00 7.9 2.7 7.9 SSO 48.2 -- 72.2 100 850(-1.2/3h) -- -- -- --
03:00 8.3 5.4 8.2 SE 18.5 -- 70.4 99 850(-1.9/3h) -- -- -- --
02:00 8.2 2.9 8.1 SE 53.7 -- 70.4 99 850(-1.8/3h) -- -- -- --
01:00 8.1 3.3 8.1 SE 42.6 -- 61.1 100 850(-1.5/3h) -- -- -- --
00:00 8.0 3.7 8.0 SSE 33.3 -- 61.1 100 850(-1.7/3h) -- -- -- --

1 Coordinated Universal Time. Actuellement il est 20:00 locale et 18:00 UTC.

2 Le vent souffle depuis la direction indiquée vers la direction oposée.

3 Les rafales max. sont disponible 40 min après l'heure du relevé.

4 Pour les stations d'altitude (plus de 600m) le géopotentiel du niveau le plus proche de la pression obligatoire est indiqué.

5 Les stations disposant d'un diffuseur peuvent indiquer "trace". Cela signifie que des précipitations ont touchés le sol mais que la quantité est inférieure à 0.1 mm.

Copyright

Les données affichées sur cette page sont la propriété exclusive de Météo Suisse.

Récapitulatif de la journée
Température [°C] Vent [km/h] Ensoleillement4 [h] Precipitations totale5 [mm] Pression [Hpa]
Min1 Max.2 Moy.3 Max. Min Max.
6.9 10.1 0 114.8 0 h 42 min 0 850.0 850.0

1 Température minimale relevée entre 18:00 UTC la veille et 18:00 UTC le jour donné.

2 Température maximale relevée entre 06:00 UTC le jour donné et 06:00 UTC le lendemain.

3 Vent moyen de la journée basé sur les relevés horaires.

4 Ensoleillement en heures relevé entre 06:00 UTC la veille et 06:00 UTC le jour donné.

5 Précipitations totales tombées entre 06:00 UTC la jour donné et 06:00 UTC le lendemain.

Graphiques horaires